createdAt,value
2022-11-18T11:28:53.491Z,19.57
2022-11-18T11:30:03.076Z,19.57
2022-11-18T11:31:10.915Z,19.57
2022-11-18T11:32:19.509Z,19.58
2022-11-18T11:33:29.387Z,19.58
2022-11-18T11:34:37.188Z,19.58
2022-11-18T11:35:46.776Z,19.59
2022-11-18T11:36:55.643Z,19.6
2022-11-18T11:38:04.195Z,19.610001
2022-11-18T11:39:13.816Z,19.620001
2022-11-18T11:40:22.639Z,19.629999
2022-11-18T11:41:32.234Z,19.639999
2022-11-18T11:42:41.876Z,19.65
2022-11-18T11:43:50.818Z,19.66
2022-11-18T11:45:00.464Z,19.68
2022-11-18T11:46:10.117Z,19.700001
2022-11-18T11:47:17.844Z,19.709999
2022-11-18T11:48:27.451Z,19.73
2022-11-18T11:49:36.376Z,19.75
2022-11-18T11:50:49.158Z,19.76
2022-11-18T11:51:55.696Z,19.780001
2022-11-18T11:53:03.280Z,19.799999
2022-11-18T11:54:13.159Z,19.809999
2022-11-18T11:55:22.693Z,19.83
2022-11-18T11:56:30.295Z,19.85
2022-11-18T11:57:39.939Z,19.860001
2022-11-18T11:58:48.535Z,19.879999
2022-11-18T11:59:58.134Z,19.889999
2022-11-18T12:01:07.687Z,19.91
2022-11-18T12:02:15.262Z,19.93
2022-11-18T12:03:24.910Z,19.940001
2022-11-18T12:04:33.507Z,19.950001
2022-11-18T12:05:41.071Z,19.969999
2022-11-18T12:06:50.692Z,19.98
2022-11-18T12:07:58.271Z,19.99
2022-11-18T12:09:07.889Z,20.01
2022-11-18T12:10:17.468Z,20.02
2022-11-18T12:11:24.085Z,20.030001
2022-11-18T12:12:33.805Z,20.049999
2022-11-18T12:13:43.362Z,20.059999
2022-11-18T12:14:50.964Z,20.07
2022-11-18T12:16:01.665Z,20.09
2022-11-18T12:17:11.230Z,20.1
2022-11-18T12:18:19.841Z,20.110001
2022-11-18T12:19:29.506Z,20.120001
2022-11-18T12:20:38.220Z,20.129999
2022-11-18T12:21:47.825Z,20.139999
2022-11-18T12:22:57.408Z,20.15
2022-11-18T12:24:07.006Z,20.16
2022-11-18T12:25:16.728Z,20.17
2022-11-18T12:26:24.305Z,20.18
2022-11-18T12:27:33.887Z,20.190001
2022-11-18T12:28:43.531Z,20.200001
2022-11-18T12:29:52.108Z,20.219999
2022-11-18T12:31:01.699Z,20.219999
2022-11-18T12:32:10.370Z,20.23
2022-11-18T12:33:19.911Z,20.24
2022-11-18T12:34:29.510Z,20.25
2022-11-18T12:35:37.095Z,20.26
2022-11-18T12:36:45.667Z,20.27
2022-11-18T12:37:55.249Z,20.280001
2022-11-18T12:39:02.864Z,20.290001
2022-11-18T12:40:12.610Z,20.299999
2022-11-18T12:41:21.170Z,20.309999
2022-11-18T12:42:28.733Z,20.32
2022-11-18T12:43:38.367Z,20.33
2022-11-18T12:44:46.005Z,20.33
2022-11-18T12:45:54.583Z,20.34
2022-11-18T12:47:05.315Z,20.35
2022-11-18T12:48:12.918Z,20.360001
2022-11-18T12:49:23.469Z,20.370001
2022-11-18T12:50:32.039Z,20.379999
2022-11-18T12:51:39.607Z,20.389999
2022-11-18T12:52:49.188Z,20.4
2022-11-18T12:53:57.825Z,20.41
2022-11-18T12:55:06.399Z,20.42
2022-11-18T12:56:16.006Z,20.42
2022-11-18T12:57:23.598Z,20.43
2022-11-18T12:58:33.385Z,20.440001
2022-11-18T12:59:41.981Z,20.450001
2022-11-18T13:00:49.590Z,20.450001
2022-11-18T13:01:59.168Z,20.459999
2022-11-18T13:03:06.736Z,20.469999
2022-11-18T13:04:15.416Z,20.48
2022-11-18T13:05:24.917Z,20.48
2022-11-18T13:06:32.516Z,20.49
2022-11-18T13:07:42.135Z,20.5
2022-11-18T13:08:50.692Z,20.51
2022-11-18T13:09:59.277Z,20.51
2022-11-18T13:11:08.898Z,20.52
2022-11-18T13:12:18.491Z,20.530001
2022-11-18T13:13:27.088Z,20.540001
2022-11-18T13:14:36.732Z,20.540001
2022-11-18T13:15:45.309Z,20.549999
2022-11-18T13:16:52.936Z,20.549999
2022-11-18T13:18:02.531Z,20.559999
2022-11-18T13:19:10.302Z,20.57
2022-11-18T13:20:18.907Z,20.57
2022-11-18T13:21:28.469Z,20.58
2022-11-18T13:22:36.171Z,20.59
2022-11-18T13:23:45.727Z,20.59
2022-11-18T13:24:55.417Z,20.6
2022-11-18T13:26:04.107Z,20.6
2022-11-18T13:27:13.725Z,20.610001
2022-11-18T13:28:21.348Z,20.610001
2022-11-18T13:29:29.930Z,20.620001
2022-11-18T13:30:39.658Z,20.620001
2022-11-18T13:31:48.239Z,20.629999
2022-11-18T13:32:57.826Z,20.629999
2022-11-18T13:34:07.448Z,20.639999
2022-11-18T13:35:17.117Z,20.639999
2022-11-18T13:36:26.879Z,20.65
2022-11-18T13:37:36.548Z,20.65
2022-11-18T13:38:45.113Z,20.65
2022-11-18T13:39:53.716Z,20.66
2022-11-18T13:41:01.458Z,20.66
2022-11-18T13:42:11.055Z,20.67
2022-11-18T13:43:19.651Z,20.67
2022-11-18T13:44:27.346Z,20.68
2022-11-18T13:45:36.973Z,20.68
2022-11-18T13:46:45.719Z,20.68
2022-11-18T13:47:55.418Z,20.67
2022-11-18T13:49:05.319Z,20.67
2022-11-18T13:50:12.835Z,20.66
2022-11-18T13:51:22.441Z,20.66
2022-11-18T13:52:31.165Z,20.66
2022-11-18T13:53:40.787Z,20.66
2022-11-18T13:54:50.631Z,20.66
2022-11-18T13:55:59.190Z,20.66
2022-11-18T13:57:07.810Z,20.66
2022-11-18T14:52:13.423Z,20.469999
2022-11-18T14:53:23.088Z,20.469999
2022-11-18T14:54:33.129Z,20.459999
2022-11-18T14:55:40.347Z,20.459999
2022-11-18T14:56:49.969Z,20.459999
2022-11-18T14:57:59.556Z,20.459999
2022-11-18T14:59:08.163Z,20.459999
2022-11-18T15:00:17.844Z,20.459999
2022-11-18T15:01:30.274Z,20.459999
2022-11-18T15:02:35.326Z,20.459999
2022-11-18T15:03:44.867Z,20.469999
2022-11-18T15:04:54.996Z,20.469999
2022-11-18T15:06:03.570Z,20.48
2022-11-18T15:07:15.097Z,20.48
2022-11-18T15:08:23.759Z,20.49
2022-11-18T15:09:33.405Z,20.5
2022-11-18T15:10:42.110Z,20.51
2022-11-18T15:11:50.703Z,20.51
2022-11-18T15:13:00.357Z,20.52
2022-11-18T15:14:07.942Z,20.530001
2022-11-18T15:15:17.637Z,20.540001
2022-11-18T15:16:27.233Z,20.549999
2022-11-18T15:17:35.657Z,20.559999
2022-11-18T15:18:44.461Z,20.57
2022-11-18T15:19:54.122Z,20.58
2022-11-18T15:21:01.715Z,20.59
2022-11-18T15:22:11.290Z,20.6
2022-11-18T15:23:18.915Z,20.610001
2022-11-18T15:24:28.659Z,20.610001
2022-11-18T15:25:38.402Z,20.620001
2022-11-18T15:26:47.058Z,20.629999
2022-11-18T15:27:56.611Z,20.639999
2022-11-18T15:29:04.167Z,20.65
2022-11-18T15:30:11.763Z,20.65
2022-11-18T15:31:21.571Z,20.66
2022-11-18T15:32:29.132Z,20.67
2022-11-18T15:33:37.808Z,20.68
2022-11-18T15:34:47.450Z,20.690001
2022-11-18T15:35:55.050Z,20.690001
2022-11-18T15:37:04.613Z,20.700001
2022-11-18T15:38:13.314Z,20.709999
2022-11-18T15:39:21.869Z,20.709999
2022-11-18T15:40:31.504Z,20.719999
2022-11-18T15:41:41.019Z,20.73
2022-11-18T15:42:52.171Z,20.73
2022-11-18T15:43:59.151Z,20.74
2022-11-18T15:45:06.727Z,20.74
2022-11-18T15:46:16.294Z,20.75
2022-11-18T15:47:24.859Z,20.75
2022-11-18T15:48:32.441Z,20.75
2022-11-18T15:49:42.680Z,20.76
2022-11-18T15:50:54.091Z,20.76
2022-11-18T15:51:58.657Z,20.77
2022-11-18T15:53:09.245Z,20.780001
2022-11-18T15:54:17.250Z,20.780001
2022-11-18T15:55:26.418Z,20.790001
2022-11-18T15:56:35.063Z,20.790001
2022-11-18T15:57:44.613Z,20.799999
2022-11-18T15:58:56.617Z,20.799999
2022-11-18T16:00:03.768Z,20.809999
2022-11-18T16:01:11.335Z,20.809999
2022-11-18T16:02:20.877Z,20.809999
2022-11-18T16:03:28.419Z,20.82
2022-11-18T16:04:38.035Z,20.82
2022-11-18T16:05:46.576Z,20.82
2022-11-18T16:06:55.236Z,20.83
2022-11-18T16:08:04.719Z,20.83
2022-11-18T16:09:13.303Z,20.83
2022-11-18T16:10:21.890Z,20.84
2022-11-18T16:11:30.496Z,20.84
2022-11-18T16:12:40.058Z,20.84
2022-11-18T16:13:49.638Z,20.84
2022-11-18T16:14:58.308Z,20.85
2022-11-18T16:16:06.964Z,20.85
2022-11-18T16:17:16.612Z,20.85
2022-11-18T16:18:24.225Z,20.85
2022-11-18T16:19:31.864Z,20.860001
2022-11-18T16:20:40.470Z,20.860001
2022-11-18T16:21:48.120Z,20.860001
2022-11-18T16:22:57.695Z,20.860001
2022-11-18T16:24:07.337Z,20.860001
2022-11-18T16:25:15.963Z,20.870001
2022-11-18T16:26:25.637Z,20.870001
2022-11-18T16:27:35.312Z,20.870001
2022-11-18T16:28:43.935Z,20.870001
2022-11-18T16:29:53.604Z,20.870001
2022-11-18T16:31:02.184Z,20.870001
2022-11-18T16:32:10.740Z,20.879999
2022-11-18T16:33:20.371Z,20.879999
2022-11-18T16:34:27.945Z,20.879999
2022-11-18T16:35:36.582Z,20.879999
2022-11-18T16:36:46.149Z,20.879999
2022-11-18T16:37:54.357Z,20.879999
2022-11-18T16:39:03.972Z,20.889999
2022-11-18T16:40:13.629Z,20.889999
2022-11-18T16:41:21.193Z,20.889999
2022-11-18T16:42:30.737Z,20.889999
2022-11-18T16:43:39.318Z,20.889999
2022-11-18T16:44:49.051Z,20.889999
2022-11-18T16:45:58.551Z,20.889999
2022-11-18T16:47:14.085Z,20.889999
2022-11-18T16:48:17.751Z,20.9
2022-11-18T16:49:26.358Z,20.9
2022-11-18T16:50:34.079Z,20.9
2022-11-18T16:51:43.661Z,20.9
2022-11-18T16:52:52.256Z,20.9
2022-11-18T16:54:01.862Z,20.9
2022-11-18T16:55:11.514Z,20.9
2022-11-18T16:56:20.068Z,20.9
2022-11-18T16:57:29.623Z,20.9
2022-11-18T16:58:38.209Z,20.91
2022-11-18T16:59:46.764Z,20.91
2022-11-18T17:01:18.906Z,20.91
2022-11-18T17:02:05.970Z,20.91
2022-11-18T17:03:14.492Z,20.91
2022-11-18T17:04:24.131Z,20.91
2022-11-18T17:05:32.801Z,20.92
2022-11-18T17:06:42.397Z,20.92
2022-11-18T17:07:52.046Z,20.92
2022-11-18T17:08:59.580Z,20.92
2022-11-18T17:10:09.193Z,20.93
2022-11-18T17:11:17.833Z,20.93
2022-11-18T17:12:27.399Z,20.93
2022-11-18T17:13:37.002Z,20.93
2022-11-18T17:14:45.724Z,20.93
2022-11-18T17:15:55.328Z,20.940001
2022-11-18T17:17:03.937Z,20.940001
2022-11-18T17:18:13.525Z,20.940001
2022-11-18T17:19:23.434Z,20.940001
2022-11-18T17:20:31.175Z,20.940001
2022-11-18T17:21:40.760Z,20.940001
2022-11-18T17:22:50.425Z,20.940001
2022-11-18T17:23:59.065Z,20.940001
2022-11-18T17:25:08.735Z,20.950001
2022-11-18T17:26:17.391Z,20.950001
2022-11-18T17:27:25.015Z,20.950001
2022-11-18T17:28:34.752Z,20.950001
2022-11-18T17:29:43.334Z,20.950001
2022-11-18T17:30:51.958Z,20.950001
2022-11-18T17:32:02.545Z,20.950001
2022-11-18T17:33:11.280Z,20.950001
2022-11-18T17:34:21.275Z,20.950001
2022-11-18T17:35:29.501Z,20.950001
2022-11-18T17:36:38.156Z,20.950001
2022-11-18T17:37:47.710Z,20.950001
2022-11-18T17:38:55.270Z,20.950001
2022-11-18T17:40:03.900Z,20.950001
2022-11-18T17:41:13.501Z,20.950001
2022-11-18T17:42:23.151Z,20.950001
2022-11-18T17:43:32.709Z,20.950001
2022-11-18T17:44:42.304Z,20.950001
2022-11-18T17:45:49.834Z,20.950001
2022-11-18T17:46:59.425Z,20.950001
2022-11-18T17:48:07.013Z,20.950001
2022-11-18T17:49:15.641Z,20.950001
2022-11-18T17:50:25.203Z,20.950001
2022-11-18T17:51:34.783Z,20.950001
2022-11-18T17:52:44.358Z,20.950001
2022-11-18T17:53:53.961Z,20.950001
2022-11-18T17:55:01.553Z,20.950001
2022-11-18T17:56:11.123Z,20.950001
2022-11-18T17:57:18.720Z,20.950001
2022-11-18T17:58:27.270Z,20.950001
2022-11-18T17:59:36.850Z,20.950001
2022-11-18T18:00:45.428Z,20.950001
2022-11-18T18:01:58.783Z,20.950001
2022-11-18T18:03:03.647Z,20.950001
2022-11-18T18:04:11.230Z,20.950001
2022-11-18T18:05:20.838Z,20.950001
2022-11-18T18:06:30.456Z,20.950001
2022-11-18T18:07:40.210Z,20.950001
2022-11-18T18:08:49.702Z,20.940001
2022-11-18T18:09:57.357Z,20.940001
2022-11-18T18:11:06.847Z,20.940001
2022-11-18T18:12:15.423Z,20.940001
2022-11-18T18:13:23.018Z,20.940001
2022-11-18T18:14:32.589Z,20.940001
2022-11-18T18:15:43.157Z,20.940001
2022-11-18T18:16:50.721Z,20.940001
2022-11-18T18:18:00.291Z,20.940001
2022-11-18T18:19:08.851Z,20.940001
2022-11-18T18:20:16.435Z,20.940001
2022-11-18T18:21:26.025Z,20.940001
2022-11-18T18:22:35.572Z,20.940001
2022-11-18T18:23:45.164Z,20.940001
2022-11-18T18:24:54.741Z,20.93
2022-11-18T18:26:02.312Z,20.93
2022-11-18T18:27:11.885Z,20.93
2022-11-18T18:28:20.436Z,20.93
2022-11-18T18:29:29.004Z,20.93
2022-11-18T18:30:38.643Z,20.93
2022-11-18T18:31:46.171Z,20.93
2022-11-18T18:32:54.755Z,20.93
2022-11-18T18:34:04.333Z,20.93
2022-11-18T18:35:11.908Z,20.93
2022-11-18T18:36:21.482Z,20.93
2022-11-18T18:37:30.328Z,20.93
2022-11-18T18:38:39.904Z,20.93
2022-11-18T18:39:49.529Z,20.92
2022-11-18T18:40:57.149Z,20.92
2022-11-18T18:42:05.766Z,20.92
2022-11-18T18:43:16.358Z,20.92
2022-11-18T18:44:24.500Z,20.92
2022-11-18T18:45:33.589Z,20.92
2022-11-18T18:46:43.192Z,20.91
2022-11-18T18:47:51.786Z,20.91
2022-11-18T18:49:01.305Z,20.91
2022-11-18T18:50:09.887Z,20.91
2022-11-18T18:51:19.451Z,20.91
2022-11-18T18:52:29.033Z,20.91
2022-11-18T18:53:37.694Z,20.91
2022-11-18T18:54:47.325Z,20.9
2022-11-18T18:55:56.140Z,20.9
2022-11-18T18:57:03.698Z,20.9
2022-11-18T18:58:13.388Z,20.9
2022-11-18T18:59:22.087Z,20.9
2022-11-18T19:00:30.704Z,20.9
2022-11-18T19:01:40.341Z,20.889999
2022-11-18T19:02:47.837Z,20.889999
2022-11-18T19:03:57.462Z,20.889999
2022-11-18T19:05:06.999Z,20.889999
2022-11-18T19:06:47.737Z,20.889999
2022-11-18T19:07:25.201Z,20.889999
2022-11-18T19:08:32.712Z,20.889999
2022-11-18T19:09:41.377Z,20.879999
2022-11-18T19:10:50.972Z,20.879999
2022-11-18T19:11:58.665Z,20.879999
2022-11-18T19:13:08.111Z,20.879999
2022-11-18T19:14:17.019Z,20.879999
2022-11-18T19:15:24.372Z,20.879999
2022-11-18T19:16:34.097Z,20.879999
2022-11-18T19:17:42.763Z,20.870001
2022-11-18T19:18:52.292Z,20.870001
2022-11-18T19:20:01.946Z,20.870001
2022-11-18T19:21:09.672Z,20.870001
2022-11-18T19:22:19.304Z,20.870001
2022-11-18T19:23:27.905Z,20.870001
2022-11-18T19:24:49.013Z,20.870001
2022-11-18T19:25:46.052Z,20.860001
2022-11-18T19:26:55.746Z,20.860001
2022-11-18T19:28:04.457Z,20.860001
2022-11-18T19:29:13.110Z,20.860001
2022-11-18T19:30:21.708Z,20.860001
2022-11-18T19:31:31.287Z,20.860001
2022-11-18T19:32:40.863Z,20.860001
2022-11-18T19:33:48.447Z,20.860001
2022-11-18T19:34:58.058Z,20.860001
2022-11-18T19:36:06.684Z,20.860001
2022-11-18T19:37:15.416Z,20.85
2022-11-18T19:38:25.059Z,20.85
2022-11-18T19:39:32.665Z,20.85
2022-11-18T19:40:42.277Z,20.85
2022-11-18T19:41:50.898Z,20.85
2022-11-18T19:43:00.482Z,20.85
2022-11-18T19:44:10.093Z,20.84
2022-11-18T19:45:19.679Z,20.84
2022-11-18T19:46:31.552Z,20.84
2022-11-18T19:47:37.916Z,20.84
2022-11-18T19:48:46.651Z,20.84
2022-11-18T19:49:56.275Z,20.84
2022-11-18T19:51:05.989Z,20.84
2022-11-18T19:52:14.669Z,20.84
2022-11-18T19:53:24.281Z,20.84
2022-11-18T19:54:31.923Z,20.83
2022-11-18T19:55:40.525Z,20.83
2022-11-18T19:56:50.107Z,20.83
2022-11-18T19:57:57.781Z,20.83
2022-11-18T19:59:07.450Z,20.83
2022-11-18T20:00:16.166Z,20.83
2022-11-18T20:01:24.823Z,20.83
2022-11-18T20:02:34.338Z,20.83
2022-11-18T20:03:41.991Z,20.82
2022-11-18T20:04:50.617Z,20.82
2022-11-18T20:06:00.223Z,20.82
2022-11-18T20:07:08.926Z,20.82
2022-11-18T20:08:18.499Z,20.82
2022-11-18T20:09:28.096Z,20.82
2022-11-18T20:10:35.700Z,20.82
2022-11-18T20:11:45.286Z,20.82
2022-11-18T20:12:53.994Z,20.809999
2022-11-18T20:14:03.560Z,20.809999
2022-11-18T20:15:13.220Z,20.809999
2022-11-18T20:16:21.899Z,20.809999
2022-11-18T20:17:30.487Z,20.809999
2022-11-18T20:18:40.146Z,20.809999
2022-11-18T20:19:47.796Z,20.809999
2022-11-18T20:20:57.422Z,20.799999
2022-11-18T20:22:07.068Z,20.799999
2022-11-18T20:23:14.842Z,20.799999
2022-11-18T20:24:24.345Z,20.799999
2022-11-18T20:25:33.964Z,20.799999
2022-11-18T20:26:42.586Z,20.799999
2022-11-18T20:27:52.172Z,20.799999
2022-11-18T20:28:59.801Z,20.799999
2022-11-18T20:30:08.516Z,20.799999
2022-11-18T20:31:18.161Z,20.799999
2022-11-18T20:32:26.757Z,20.790001
2022-11-18T20:33:36.465Z,20.790001
2022-11-18T20:34:45.054Z,20.790001
2022-11-18T20:35:52.716Z,20.790001
2022-11-18T20:37:02.308Z,20.790001
2022-11-18T20:38:09.995Z,20.790001
2022-11-18T20:39:18.903Z,20.790001
2022-11-18T20:40:28.184Z,20.790001
2022-11-18T20:41:35.819Z,20.790001
2022-11-18T20:42:46.357Z,20.780001
2022-11-18T20:43:55.025Z,20.780001
2022-11-18T20:45:03.676Z,20.780001
2022-11-18T20:46:17.322Z,20.780001
2022-11-18T20:47:22.806Z,20.780001
2022-11-18T20:48:31.394Z,20.77
2022-11-18T20:49:39.970Z,20.77
2022-11-18T20:50:48.576Z,20.77
2022-11-18T20:51:58.179Z,20.77
2022-11-18T20:53:06.766Z,20.77
2022-11-18T20:54:14.359Z,20.76
2022-11-18T20:55:24.015Z,20.76
2022-11-18T20:56:32.628Z,20.76
2022-11-18T20:57:41.218Z,20.76
2022-11-18T20:58:50.872Z,20.76
2022-11-18T20:59:59.505Z,20.75
2022-11-18T21:01:09.191Z,20.75
2022-11-18T21:02:18.751Z,20.75
2022-11-18T21:03:28.426Z,20.75
2022-11-18T21:04:37.957Z,20.75
2022-11-18T21:05:46.548Z,20.74
2022-11-18T21:06:55.203Z,20.74
2022-11-18T21:08:04.729Z,20.74
2022-11-18T21:09:12.306Z,20.73
2022-11-18T21:10:21.885Z,20.73
2022-11-18T21:11:30.467Z,20.73
2022-11-18T21:12:38.043Z,20.73
2022-11-18T21:13:47.630Z,20.719999
2022-11-18T21:14:55.192Z,20.719999
2022-11-18T21:16:02.776Z,20.719999
2022-11-18T21:17:12.350Z,20.719999
2022-11-18T21:18:20.953Z,20.709999
2022-11-18T21:19:30.574Z,20.709999
2022-11-18T21:20:39.203Z,20.709999
2022-11-18T21:21:46.784Z,20.700001
2022-11-18T21:22:56.351Z,20.700001
2022-11-18T21:24:04.905Z,20.700001
2022-11-18T21:25:13.464Z,20.690001
2022-11-18T21:26:23.090Z,20.690001
2022-11-18T21:27:30.662Z,20.68
2022-11-18T21:28:40.244Z,20.68
2022-11-18T21:29:48.822Z,20.68
2022-11-18T21:30:57.422Z,20.67
2022-11-18T21:32:06.994Z,20.67
2022-11-18T21:33:14.605Z,20.66
2022-11-18T21:34:23.217Z,20.66
2022-11-18T21:35:32.779Z,20.65
2022-11-18T21:36:44.938Z,20.65
2022-11-18T21:37:49.986Z,20.65
2022-11-18T21:38:58.598Z,20.639999
2022-11-18T21:40:06.197Z,20.639999
2022-11-18T21:41:15.804Z,20.629999
2022-11-18T21:42:23.426Z,20.629999
2022-11-18T21:43:58.197Z,20.620001
2022-11-18T21:44:42.539Z,20.620001
2022-11-18T21:45:50.187Z,20.620001
2022-11-18T21:46:59.774Z,20.610001
2022-11-18T21:48:08.385Z,20.610001
2022-11-18T21:49:15.977Z,20.6
2022-11-18T21:50:25.618Z,20.6
2022-11-18T21:51:35.218Z,20.6
2022-11-18T21:52:43.866Z,20.59
2022-11-18T21:53:53.459Z,20.59
2022-11-18T21:55:02.034Z,20.58
2022-11-18T21:56:11.714Z,20.58
2022-11-18T21:57:20.271Z,20.57
2022-11-18T21:58:27.844Z,20.57
2022-11-18T21:59:37.445Z,20.57
2022-11-18T22:00:45.068Z,20.559999
2022-11-18T22:01:53.641Z,20.549999
2022-11-18T22:03:03.236Z,20.549999
2022-11-18T22:04:10.840Z,20.549999
2022-11-18T22:05:20.428Z,20.540001
2022-11-18T22:06:29.076Z,20.540001
2022-11-18T22:07:38.656Z,20.530001
2022-11-18T22:08:48.284Z,20.530001
2022-11-18T22:09:55.874Z,20.52
2022-11-18T22:11:04.440Z,20.52
2022-11-18T22:12:14.034Z,20.52
2022-11-18T22:13:22.679Z,20.51
2022-11-18T22:14:30.265Z,20.51
2022-11-18T22:15:38.899Z,20.5
2022-11-18T22:16:46.493Z,20.5
2022-11-18T22:17:55.151Z,20.5
2022-11-18T22:19:08.100Z,20.49
2022-11-18T22:20:14.389Z,20.49
2022-11-18T22:21:23.982Z,20.48
2022-11-18T22:22:32.588Z,20.48
2022-11-18T22:23:42.140Z,20.48
2022-11-18T22:24:51.783Z,20.469999
2022-11-18T22:25:59.445Z,20.469999
2022-11-18T22:27:11.282Z,20.469999
2022-11-18T22:28:17.582Z,20.459999
2022-11-18T22:29:25.188Z,20.459999
2022-11-18T22:30:34.776Z,20.450001
2022-11-18T22:31:43.464Z,20.450001
2022-11-18T22:32:51.094Z,20.450001
2022-11-18T22:34:00.691Z,20.440001
2022-11-18T22:35:09.279Z,20.440001
2022-11-18T22:36:18.896Z,20.43
2022-11-18T22:37:28.535Z,20.43
2022-11-18T22:38:36.120Z,20.43
2022-11-18T22:39:45.676Z,20.42
2022-11-18T22:40:54.247Z,20.42
2022-11-18T22:42:01.824Z,20.42
2022-11-18T22:43:11.426Z,20.41
2022-11-18T22:44:18.992Z,20.41
2022-11-18T22:45:28.567Z,20.4
2022-11-18T22:46:38.167Z,20.4
2022-11-18T22:47:45.738Z,20.4
2022-11-18T22:48:55.315Z,20.4
2022-11-18T22:50:03.891Z,20.389999
2022-11-18T22:51:11.491Z,20.389999
2022-11-18T22:52:21.065Z,20.389999
2022-11-18T22:53:28.635Z,20.389999
2022-11-18T22:54:39.069Z,20.379999
2022-11-18T22:55:46.834Z,20.379999
2022-11-18T22:56:54.422Z,20.370001
2022-11-18T22:58:03.984Z,20.370001
2022-11-18T22:59:12.557Z,20.370001
2022-11-18T23:00:20.142Z,20.370001
2022-11-18T23:01:29.734Z,20.360001
2022-11-18T23:02:37.331Z,20.360001
2022-11-18T23:03:45.891Z,20.360001
2022-11-18T23:04:55.477Z,20.360001
2022-11-18T23:06:03.044Z,20.35
2022-11-18T23:07:12.693Z,20.35
2022-11-18T23:08:22.306Z,20.35
2022-11-18T23:09:29.804Z,20.34
2022-11-18T23:10:39.402Z,20.34
2022-11-18T23:11:47.978Z,20.34
2022-11-18T23:12:56.564Z,20.34
2022-11-18T23:14:06.159Z,20.33
2022-11-18T23:15:13.713Z,20.33
2022-11-18T23:16:23.323Z,20.33
2022-11-18T23:17:32.896Z,20.32
2022-11-18T23:18:41.457Z,20.32
2022-11-18T23:19:51.008Z,20.32
2022-11-18T23:20:58.576Z,20.32
2022-11-18T23:22:07.148Z,20.309999
2022-11-18T23:23:16.720Z,20.309999
2022-11-18T23:24:24.297Z,20.309999
2022-11-18T23:25:33.884Z,20.299999
2022-11-18T23:26:42.501Z,20.299999
2022-11-18T23:27:54.298Z,20.299999
2022-11-18T23:29:01.622Z,20.299999
2022-11-18T23:30:09.178Z,20.290001
2022-11-18T23:31:18.754Z,20.290001
2022-11-18T23:32:28.329Z,20.290001
2022-11-18T23:33:36.900Z,20.280001
2022-11-18T23:34:46.483Z,20.280001
2022-11-18T23:35:55.056Z,20.280001
2022-11-18T23:37:02.645Z,20.280001
2022-11-18T23:38:12.236Z,20.280001
2022-11-18T23:39:20.016Z,20.27
2022-11-18T23:40:28.415Z,20.27
2022-11-18T23:41:38.018Z,20.27
2022-11-18T23:42:45.690Z,20.27
2022-11-18T23:43:55.201Z,20.27
2022-11-18T23:45:05.518Z,20.26
2022-11-18T23:46:12.340Z,20.26
2022-11-18T23:47:21.955Z,20.26
2022-11-18T23:48:30.527Z,20.26
2022-11-18T23:49:39.078Z,20.26
2022-11-18T23:50:49.659Z,20.25
2022-11-18T23:51:57.259Z,20.25
2022-11-18T23:53:06.853Z,20.25
2022-11-18T23:54:15.409Z,20.25
2022-11-18T23:55:23.989Z,20.25
2022-11-18T23:56:37.701Z,20.24
2022-11-18T23:57:43.159Z,20.24
2022-11-18T23:58:51.752Z,20.24
